Time;durP1;ratioP1;P1;durP2;ratioP2;P2;SDS_P1;SDS_P2;PMS_P1;PMS_P2;Temp;Humidity;BMP_temperature;BMP_pressure;BME280_temperature;BME280_humidity;BME280_pressure;Samples;Min_cycle;Max_cycle;Signal;HPM_P1;HPM_P2
2022/04/25 00:01:15;;;;;;;1.87;1.40;;;10.00;69.40;;;;;;4963084;28;46387;-63
2022/04/25 00:03:41;;;;;;;2.03;1.40;;;10.00;69.50;;;;;;4962424;28;46512;-63
2022/04/25 00:06:07;;;;;;;1.83;1.23;;;10.00;69.60;;;;;;4962751;28;46337;-64
2022/04/25 00:08:33;;;;;;;2.63;1.30;;;10.00;69.60;;;;;;4961854;28;48814;-63
2022/04/25 00:10:59;;;;;;;2.00;1.20;;;9.90;70.70;;;;;;4962485;28;46471;-64
2022/04/25 00:13:25;;;;;;;1.50;0.90;;;10.00;69.80;;;;;;4962941;28;45808;-64
2022/04/25 00:15:52;;;;;;;2.03;1.20;;;10.00;69.70;;;;;;4964310;28;45900;-64
2022/04/25 00:18:18;;;;;;;1.60;1.10;;;10.00;69.70;;;;;;4961383;28;46492;-64
2022/04/25 00:20:44;;;;;;;1.60;1.10;;;9.90;70.80;;;;;;4962493;28;46407;-64
2022/04/25 00:23:10;;;;;;;1.70;1.30;;;9.90;71.00;;;;;;4962624;28;46428;-64
2022/04/25 00:25:36;;;;;;;1.40;0.80;;;9.90;71.00;;;;;;4962323;28;45845;-64
2022/04/25 00:28:04;;;;;;;1.50;0.90;;;9.80;71.10;;;;;;4962093;28;47163;-64
2022/04/25 00:30:30;;;;;;;1.53;1.10;;;9.80;71.40;;;;;;4960337;28;46286;-64
2022/04/25 00:32:57;;;;;;;1.50;1.00;;;9.70;71.50;;;;;;4962133;28;46435;-64
2022/04/25 00:35:24;;;;;;;1.57;1.07;;;9.70;71.60;;;;;;4961304;28;46403;-64
2022/04/25 00:37:50;;;;;;;1.50;1.00;;;9.70;71.60;;;;;;4961423;28;46420;-63
2022/04/25 00:40:19;;;;;;;1.30;0.80;;;9.70;71.80;;;;;;4962552;28;46392;-63
2022/04/25 00:42:45;;;;;;;1.67;0.90;;;9.70;72.00;;;;;;4961157;28;46396;-63
2022/04/25 00:45:12;;;;;;;2.50;0.90;;;9.60;72.00;;;;;;4962584;28;46427;-64
2022/04/25 00:47:39;;;;;;;1.40;0.90;;;9.70;72.00;;;;;;4961332;28;47938;-64
2022/04/25 00:50:05;;;;;;;1.53;0.90;;;9.60;71.90;;;;;;4960013;28;46357;-64
2022/04/25 00:52:31;;;;;;;1.27;0.80;;;9.70;72.00;;;;;;4962396;28;46440;-64
2022/04/25 00:55:00;;;;;;;1.90;1.10;;;9.70;71.90;;;;;;4960805;28;46039;-66
2022/04/25 00:57:27;;;;;;;1.80;0.83;;;9.70;71.70;;;;;;4961669;28;48294;-63
2022/04/25 00:59:54;;;;;;;1.60;1.03;;;9.70;71.60;;;;;;4958243;28;46474;-63
2022/04/25 01:02:19;;;;;;;1.37;0.80;;;9.70;71.30;;;;;;4961354;28;46469;-63
2022/04/25 01:04:45;;;;;;;1.70;1.03;;;9.70;71.40;;;;;;4962356;28;46275;-63
2022/04/25 01:07:11;;;;;;;1.53;1.07;;;9.70;71.50;;;;;;4961345;28;47757;-63
2022/04/25 01:09:38;;;;;;;1.57;1.00;;;9.70;71.70;;;;;;4960593;28;46402;-64
2022/04/25 01:12:04;;;;;;;1.47;1.10;;;9.70;71.70;;;;;;4958285;28;46340;-63
2022/04/25 01:14:33;;;;;;;2.20;1.20;;;9.70;71.50;;;;;;4956527;28;46544;-61
2022/04/25 01:17:00;;;;;;;1.60;1.00;;;9.80;71.60;;;;;;4944630;28;48765;-62
2022/04/25 01:19:26;;;;;;;1.90;1.40;;;9.80;71.40;;;;;;4959107;28;46568;-63
2022/04/25 01:21:58;;;;;;;2.50;1.57;;;9.80;71.30;;;;;;4960661;28;46576;-64
2022/04/25 01:27:17;;;;;;;1.80;1.23;;;9.80;71.40;;;;;;4961448;28;46626;-63
2022/04/25 01:29:53;;;;;;;1.80;1.37;;;9.80;71.50;;;;;;4950688;28;46456;-62
2022/04/25 01:32:23;;;;;;;3.83;1.50;;;9.80;71.50;;;;;;4960769;28;46420;-63
2022/04/25 01:34:49;;;;;;;2.10;1.53;;;9.80;71.60;;;;;;4961331;28;46539;-62
2022/04/25 01:37:17;;;;;;;2.23;1.47;;;9.80;71.50;;;;;;4960689;28;47766;-63
2022/04/25 01:39:48;;;;;;;2.00;1.30;;;9.80;71.50;;;;;;4951826;28;46307;-64
2022/04/25 01:42:15;;;;;;;1.90;1.50;;;9.80;71.50;;;;;;4961396;28;46460;-63
2022/04/25 01:44:42;;;;;;;2.20;1.60;;;9.90;71.60;;;;;;4960910;28;46464;-63
2022/04/25 01:47:08;;;;;;;2.20;1.37;;;9.90;72.60;;;;;;4960050;28;48740;-63
2022/04/25 01:49:34;;;;;;;2.07;1.47;;;9.90;71.60;;;;;;4956364;28;46757;-63
2022/04/25 01:52:15;;;;;;;2.40;1.73;;;9.90;71.70;;;;;;4960474;28;46411;-61
2022/04/25 01:54:40;;;;;;;3.30;1.83;;;9.90;71.70;;;;;;4957396;28;46648;-64
2022/04/25 01:57:06;;;;;;;2.83;2.23;;;9.90;71.70;;;;;;4958574;28;47928;-63
2022/04/25 01:59:32;;;;;;;3.17;2.13;;;9.90;71.60;;;;;;4956146;28;46728;-64
2022/04/25 02:02:01;;;;;;;2.30;1.90;;;9.90;71.70;;;;;;4955780;28;46525;-64
2022/04/25 02:04:27;;;;;;;2.60;2.03;;;9.80;71.80;;;;;;4953126;28;46419;-63
2022/04/25 02:06:53;;;;;;;1.97;1.70;;;9.80;71.90;;;;;;4950705;28;46783;-63
2022/04/25 02:09:20;;;;;;;2.60;2.10;;;9.80;72.10;;;;;;4955329;28;46422;-63
2022/04/25 02:11:47;;;;;;;2.90;2.10;;;9.80;72.10;;;;;;4953094;28;47115;-63
2022/04/25 02:14:12;;;;;;;2.80;2.20;;;9.80;72.30;;;;;;4950885;28;46404;-63
2022/04/25 02:16:38;;;;;;;3.50;2.30;;;9.80;72.30;;;;;;4954996;28;48014;-62
2022/04/25 02:19:04;;;;;;;2.60;2.10;;;9.80;72.40;;;;;;4936679;28;46511;-62
2022/04/25 02:21:30;;;;;;;3.17;2.20;;;9.80;72.40;;;;;;4951808;28;46460;-63
2022/04/25 02:23:56;;;;;;;3.10;2.70;;;9.70;72.50;;;;;;4953390;28;46686;-63
2022/04/25 02:26:21;;;;;;;3.23;2.40;;;9.70;72.70;;;;;;4953774;28;46577;-63
2022/04/25 02:28:48;;;;;;;3.10;2.60;;;9.70;72.60;;;;;;4955664;28;46563;-63
2022/04/25 02:31:14;;;;;;;2.87;2.40;;;9.70;72.90;;;;;;4951814;28;46377;-64
2022/04/25 02:33:41;;;;;;;3.57;2.77;;;9.70;72.70;;;;;;4956266;28;46673;-63
2022/04/25 02:36:07;;;;;;;3.80;2.57;;;9.70;72.70;;;;;;4955019;28;48232;-64
2022/04/25 02:38:37;;;;;;;3.27;2.70;;;9.70;72.80;;;;;;4951811;28;46400;-62
2022/04/25 02:41:06;;;;;;;3.80;3.00;;;9.80;72.70;;;;;;4954568;28;46417;-64
2022/04/25 02:43:34;;;;;;;2.90;2.33;;;9.80;72.60;;;;;;4954646;28;46618;-63
2022/04/25 02:46:02;;;;;;;4.50;2.63;;;9.70;72.70;;;;;;4950631;28;46328;-64
2022/04/25 02:48:31;;;;;;;4.23;2.60;;;9.80;72.90;;;;;;4955628;28;46459;-63
2022/04/25 02:50:58;;;;;;;3.70;2.90;;;9.80;72.80;;;;;;4959950;28;46350;-64
2022/04/25 02:53:26;;;;;;;3.57;2.70;;;9.80;72.60;;;;;;4959334;28;46680;-64
2022/04/25 02:55:53;;;;;;;4.67;2.37;;;9.80;73.80;;;;;;4958969;28;47859;-64
2022/04/25 02:58:22;;;;;;;2.50;2.00;;;9.80;72.40;;;;;;4959301;28;46446;-64
2022/04/25 03:00:49;;;;;;;2.80;2.43;;;9.90;72.50;;;;;;4958506;28;46416;-65
2022/04/25 03:03:17;;;;;;;2.67;2.13;;;9.90;72.60;;;;;;4960218;28;46440;-65
2022/04/25 03:05:44;;;;;;;2.43;2.07;;;9.90;72.50;;;;;;4960053;28;46619;-64
2022/04/25 03:08:11;;;;;;;2.80;2.37;;;9.90;72.50;;;;;;4959489;28;46470;-63
2022/04/25 03:10:37;;;;;;;3.27;2.70;;;9.90;72.60;;;;;;4959755;28;46448;-64
2022/04/25 03:13:07;;;;;;;3.10;2.40;;;9.90;72.60;;;;;;4959353;28;46468;-65
2022/04/25 03:15:34;;;;;;;4.07;2.73;;;10.00;71.40;;;;;;4961115;28;47185;-64
2022/04/25 03:18:01;;;;;;;5.17;3.13;;;10.00;71.50;;;;;;4959924;28;46380;-64
2022/04/25 03:20:28;;;;;;;3.97;3.00;;;10.00;71.60;;;;;;4958983;28;46328;-64
2022/04/25 03:22:55;;;;;;;3.30;2.80;;;10.00;71.70;;;;;;4959742;28;46314;-64
2022/04/25 03:25:21;;;;;;;3.77;2.63;;;9.90;73.00;;;;;;4959775;28;47986;-65
2022/04/25 03:27:46;;;;;;;3.50;2.70;;;9.80;73.80;;;;;;4961226;28;46382;-65
2022/04/25 03:30:12;;;;;;;4.30;2.27;;;9.70;75.00;;;;;;4962037;28;45877;-64
2022/04/25 03:32:45;;;;;;;3.30;2.80;;;9.70;75.80;;;;;;4962997;28;46534;-65
2022/04/25 03:35:15;;;;;;;3.70;3.10;;;9.70;75.70;;;;;;4962180;28;48045;-65
2022/04/25 03:37:41;;;;;;;3.60;3.10;;;9.80;75.20;;;;;;4961873;28;46511;-64
2022/04/25 03:40:09;;;;;;;3.50;3.10;;;9.80;75.10;;;;;;4962375;28;46468;-64
2022/04/25 03:42:36;;;;;;;4.00;3.10;;;9.80;74.80;;;;;;4963161;28;46360;-65
2022/04/25 03:45:04;;;;;;;4.70;3.43;;;9.90;74.60;;;;;;4962975;28;47075;-63
2022/04/25 03:47:29;;;;;;;5.00;3.93;;;9.90;74.30;;;;;;4962803;28;46529;-64
2022/04/25 03:49:56;;;;;;;5.13;3.43;;;9.90;74.10;;;;;;4962832;28;46316;-64
2022/04/25 03:52:22;;;;;;;5.60;3.93;;;9.90;74.00;;;;;;4962957;28;46376;-64
2022/04/25 03:57:32;;;;;;;5.07;4.30;;;9.90;74.00;;;;;;4962810;28;46430;-64
2022/04/25 03:59:58;;;;;;;10.23;4.77;;;10.00;72.90;;;;;;4961320;28;46649;-64
2022/04/25 04:02:24;;;;;;;5.50;4.27;;;10.00;72.70;;;;;;4962698;28;46726;-64
2022/04/25 04:04:50;;;;;;;5.23;4.00;;;10.10;72.60;;;;;;4962624;28;47638;-64
2022/04/25 04:07:16;;;;;;;5.33;3.87;;;10.00;72.60;;;;;;4963626;28;46400;-65
2022/04/25 04:09:50;;;;;;;6.53;4.00;;;10.10;72.60;;;;;;4959335;28;46485;-64
2022/04/25 04:12:17;;;;;;;6.60;5.10;;;10.10;72.60;;;;;;4962854;28;46404;-64
2022/04/25 04:14:44;;;;;;;5.60;4.40;;;10.10;72.80;;;;;;4962771;28;47148;-64
2022/04/25 04:17:09;;;;;;;6.13;4.90;;;10.10;72.50;;;;;;4962781;28;45746;-64
2022/04/25 04:19:37;;;;;;;5.83;3.90;;;10.10;72.60;;;;;;4962072;28;46362;-64
2022/04/25 04:22:04;;;;;;;7.60;4.60;;;10.10;72.70;;;;;;4962350;28;46671;-64
2022/04/25 04:24:31;;;;;;;5.77;4.50;;;10.00;72.90;;;;;;4962389;28;46554;-64
2022/04/25 04:27:05;;;;;;;9.33;5.50;;;9.90;74.60;;;;;;4962408;28;45789;-64
2022/04/25 04:29:35;;;;;;;5.70;4.40;;;9.90;74.70;;;;;;4962354;28;46380;-63
2022/04/25 04:32:07;;;;;;;7.70;5.10;;;10.00;73.40;;;;;;4963147;28;46334;-64
2022/04/25 04:34:35;;;;;;;5.83;4.70;;;10.10;73.30;;;;;;4960804;28;48766;-64
2022/04/25 04:37:02;;;;;;;7.60;5.03;;;10.00;73.40;;;;;;4962230;28;46255;-63
2022/04/25 04:39:27;;;;;;;8.23;5.70;;;9.90;74.80;;;;;;4960933;28;46306;-64
2022/04/25 04:41:54;;;;;;;7.60;4.97;;;9.90;74.90;;;;;;4962060;28;46605;-64
2022/04/25 04:44:20;;;;;;;7.30;4.53;;;9.90;75.00;;;;;;4962104;28;46493;-64
2022/04/25 04:46:47;;;;;;;7.17;5.10;;;9.90;75.40;;;;;;4961884;28;46425;-64
2022/04/25 04:49:13;;;;;;;7.27;5.57;;;9.90;75.50;;;;;;4958231;28;46409;-64
2022/04/25 04:51:38;;;;;;;7.70;5.50;;;9.90;76.00;;;;;;4962463;28;46341;-64
2022/04/25 04:54:04;;;;;;;7.67;5.80;;;9.90;76.20;;;;;;4959611;28;46595;-64
2022/04/25 04:56:30;;;;;;;8.03;6.37;;;9.90;76.60;;;;;;4961550;28;46566;-64
2022/04/25 04:58:56;;;;;;;8.47;5.80;;;9.90;76.90;;;;;;4963573;28;46417;-64
2022/04/25 05:01:22;;;;;;;9.70;6.77;;;9.90;77.10;;;;;;4962414;28;46454;-64
2022/04/25 05:03:48;;;;;;;9.73;7.00;;;9.90;77.80;;;;;;4961291;28;48036;-64
2022/04/25 05:06:14;;;;;;;11.30;7.50;;;9.90;77.80;;;;;;4961907;28;46420;-63
2022/04/25 05:08:40;;;;;;;8.03;6.37;;;9.90;77.80;;;;;;4961646;28;46539;-63
2022/04/25 05:11:09;;;;;;;10.90;7.17;;;9.90;77.80;;;;;;4961597;28;46440;-62
2022/04/25 05:13:38;;;;;;;10.27;7.20;;;9.90;77.90;;;;;;4962626;28;46541;-63
2022/04/25 05:16:04;;;;;;;11.20;7.50;;;9.90;77.80;;;;;;4960521;28;46452;-64
2022/04/25 05:18:33;;;;;;;9.73;7.30;;;10.00;77.00;;;;;;4960799;28;46453;-64
2022/04/25 05:21:03;;;;;;;9.50;7.03;;;10.00;78.20;;;;;;4961153;28;46333;-64
2022/04/25 05:23:29;;;;;;;9.43;7.00;;;10.10;77.00;;;;;;4961494;28;46436;-64
2022/04/25 05:25:55;;;;;;;12.57;7.83;;;10.10;77.00;;;;;;4961179;28;46391;-63
2022/04/25 05:28:22;;;;;;;9.00;7.10;;;10.10;77.00;;;;;;4960952;28;46310;-64
2022/04/25 05:30:48;;;;;;;10.83;8.03;;;10.20;77.20;;;;;;4961831;28;46641;-64
2022/04/25 05:33:19;;;;;;;10.60;7.70;;;10.20;77.10;;;;;;4961364;28;48904;-65
2022/04/25 05:35:45;;;;;;;12.93;8.87;;;10.30;77.20;;;;;;4959804;28;46427;-64
2022/04/25 05:38:11;;;;;;;13.47;8.30;;;10.30;77.30;;;;;;4957023;28;46553;-64
2022/04/25 05:40:39;;;;;;;14.47;9.00;;;10.30;77.10;;;;;;4956828;28;45866;-63
2022/04/25 05:43:06;;;;;;;14.70;9.90;;;10.30;76.80;;;;;;4962311;28;46360;-63
2022/04/25 05:45:33;;;;;;;18.73;11.20;;;10.40;76.70;;;;;;4959440;28;46496;-63
2022/04/25 05:47:59;;;;;;;13.50;9.10;;;10.50;76.20;;;;;;4960432;28;46423;-63
2022/04/25 05:53:11;;;;;;;16.47;11.60;;;10.60;75.50;;;;;;4961707;28;46573;-63
2022/04/25 05:55:37;;;;;;;16.40;11.93;;;10.70;75.60;;;;;;4960861;28;46396;-63
2022/04/25 05:58:04;;;;;;;16.73;12.03;;;10.70;75.00;;;;;;4960140;28;46258;-63
2022/04/25 06:00:31;;;;;;;18.80;13.60;;;10.70;74.80;;;;;;4958013;28;46413;-63
2022/04/25 06:02:57;;;;;;;19.33;14.23;;;10.70;75.10;;;;;;4960117;28;47779;-64
2022/04/25 06:05:24;;;;;;;18.93;12.80;;;10.80;74.30;;;;;;4954237;28;46355;-64
2022/04/25 06:07:50;;;;;;;16.70;12.13;;;10.90;73.90;;;;;;4959307;28;46418;-64
2022/04/25 06:10:22;;;;;;;17.07;11.73;;;10.90;73.30;;;;;;4960266;28;46455;-64
2022/04/25 06:12:50;;;;;;;16.13;12.20;;;10.90;73.20;;;;;;4953882;28;47753;-63
2022/04/25 06:15:17;;;;;;;16.17;11.73;;;11.10;73.20;;;;;;4958211;28;46168;-64
2022/04/25 06:17:43;;;;;;;15.17;10.93;;;11.30;72.30;;;;;;4958967;28;46591;-63
2022/04/25 06:20:10;;;;;;;15.40;11.47;;;11.60;71.70;;;;;;4956450;28;46451;-64
2022/04/25 06:22:37;;;;;;;18.40;10.80;;;11.60;71.20;;;;;;4954744;28;48921;-64
2022/04/25 06:25:04;;;;;;;15.80;12.03;;;11.90;70.50;;;;;;4958595;28;46398;-64
2022/04/25 06:27:30;;;;;;;16.20;11.70;;;12.00;70.10;;;;;;4959495;28;46475;-64
2022/04/25 06:29:56;;;;;;;12.77;10.37;;;12.10;70.00;;;;;;4960158;28;46024;-66
2022/04/25 06:32:23;;;;;;;14.73;11.50;;;12.20;69.40;;;;;;4961359;28;46938;-66
2022/04/25 06:34:49;;;;;;;14.37;9.70;;;12.20;69.40;;;;;;4966715;28;46586;-62
2022/04/25 06:37:15;;;;;;;14.93;9.60;;;12.40;68.90;;;;;;4965012;28;46383;-64
2022/04/25 06:39:41;;;;;;;14.03;10.53;;;12.30;68.30;;;;;;4958788;28;46694;-64
2022/04/25 06:42:10;;;;;;;13.90;10.50;;;12.70;67.50;;;;;;4955587;28;47993;-62
2022/04/25 06:44:39;;;;;;;12.40;9.90;;;13.00;65.70;;;;;;4955057;28;46480;-62
2022/04/25 06:47:05;;;;;;;10.97;8.70;;;12.80;65.80;;;;;;4959595;28;46405;-63
2022/04/25 06:49:31;;;;;;;17.77;10.30;;;12.50;65.40;;;;;;4958662;28;46555;-64
2022/04/25 06:51:59;;;;;;;14.20;11.10;;;12.40;65.70;;;;;;4958657;28;48831;-64
2022/04/25 06:54:30;;;;;;;12.70;9.33;;;12.50;65.80;;;;;;4956825;28;46421;-64
2022/04/25 06:56:59;;;;;;;15.73;11.00;;;12.30;64.20;;;;;;4959308;28;46372;-64
2022/04/25 06:59:25;;;;;;;14.90;10.50;;;12.00;64.80;;;;;;4955263;28;45913;-63
2022/04/25 07:01:51;;;;;;;15.50;10.60;;;11.90;65.60;;;;;;4960444;28;46460;-63
2022/04/25 07:04:17;;;;;;;16.50;11.33;;;11.70;65.00;;;;;;4959877;28;46361;-64
2022/04/25 07:06:44;;;;;;;16.60;10.07;;;11.60;65.90;;;;;;4952210;28;46375;-65
2022/04/25 07:09:13;;;;;;;15.70;10.73;;;11.70;66.00;;;;;;4958011;28;46807;-64
2022/04/25 07:11:44;;;;;;;13.67;9.97;;;11.70;66.00;;;;;;4959115;28;48054;-63
2022/04/25 07:14:21;;;;;;;15.13;10.37;;;11.80;65.20;;;;;;4959176;28;45763;-64
2022/04/25 07:16:48;;;;;;;13.33;9.70;;;11.90;64.80;;;;;;4959072;28;46476;-64
2022/04/25 07:19:17;;;;;;;12.83;9.60;;;12.30;63.90;;;;;;4957916;28;46370;-63
2022/04/25 07:29:56;;;;;;;14.10;10.20;;;12.40;61.50;;;;;;4957174;28;45821;-63
2022/04/25 07:32:22;;;;;;;13.00;10.10;;;12.40;61.30;;;;;;4960929;28;47437;-63
2022/04/25 07:34:48;;;;;;;11.87;8.70;;;12.50;61.10;;;;;;4958671;28;47149;-64
2022/04/25 07:37:16;;;;;;;10.93;8.50;;;12.70;60.40;;;;;;4959009;28;46404;-64
2022/04/25 07:39:42;;;;;;;13.83;10.23;;;12.70;60.40;;;;;;4959143;28;46381;-64
2022/04/25 07:42:08;;;;;;;13.90;9.70;;;12.60;60.00;;;;;;4951603;28;47912;-64
2022/04/25 07:44:34;;;;;;;13.70;10.10;;;13.00;60.00;;;;;;4959216;28;46431;-64
2022/04/25 07:47:00;;;;;;;13.67;9.83;;;13.30;59.50;;;;;;4958650;28;46361;-64
2022/04/25 07:49:26;;;;;;;22.37;10.40;;;13.60;59.00;;;;;;4958753;28;46423;-64
2022/04/25 07:51:55;;;;;;;14.53;9.37;;;13.80;58.30;;;;;;4958844;28;48209;-63
2022/04/25 07:54:22;;;;;;;14.00;9.30;;;13.70;58.10;;;;;;4958998;28;46351;-64
2022/04/25 07:56:48;;;;;;;13.07;9.20;;;13.60;58.20;;;;;;4958567;28;46660;-64
2022/04/25 07:59:15;;;;;;;10.50;7.60;;;13.50;58.50;;;;;;4958612;28;46472;-63
2022/04/25 08:01:41;;;;;;;14.73;8.37;;;13.30;58.00;;;;;;4958880;28;48034;-64
2022/04/25 08:04:07;;;;;;;12.40;8.80;;;13.20;58.10;;;;;;4957643;28;46313;-64
2022/04/25 08:06:33;;;;;;;12.00;9.47;;;13.30;58.30;;;;;;4956592;28;46379;-64
2022/04/25 08:09:02;;;;;;;13.50;8.80;;;13.50;57.70;;;;;;4956567;28;46414;-63
2022/04/25 08:11:27;;;;;;;10.87;7.83;;;13.60;57.70;;;;;;4958657;28;48643;-63
2022/04/25 08:19:21;;;;;;;10.97;8.03;;;13.70;56.50;;;;;;4963851;28;46253;-63
2022/04/25 08:21:47;;;;;;;11.77;8.30;;;13.80;55.30;;;;;;4962416;28;47830;-63
2022/04/25 08:24:14;;;;;;;11.60;7.33;;;14.10;55.40;;;;;;4959478;28;46486;-64
2022/04/25 08:26:40;;;;;;;11.80;8.80;;;14.50;55.40;;;;;;4961512;28;46474;-64
2022/04/25 08:29:06;;;;;;;11.53;7.77;;;14.70;53.90;;;;;;4957669;28;46468;-64
2022/04/25 08:31:34;;;;;;;13.33;8.77;;;14.70;52.90;;;;;;4960937;28;48984;-64
2022/04/25 08:34:01;;;;;;;10.63;8.67;;;14.80;51.90;;;;;;4960585;28;46352;-63
2022/04/25 08:36:27;;;;;;;10.33;8.43;;;14.90;51.10;;;;;;4960986;28;46375;-63
2022/04/25 08:38:53;;;;;;;10.80;8.40;;;15.20;51.20;;;;;;4960659;28;46536;-63
2022/04/25 08:41:24;;;;;;;11.60;8.30;;;15.40;51.00;;;;;;4961725;28;48990;-62
2022/04/25 08:43:53;;;;;;;10.50;7.83;;;15.50;50.00;;;;;;4971019;28;46528;-62
2022/04/25 08:46:21;;;;;;;10.53;7.87;;;15.50;49.90;;;;;;4960791;28;46749;-63
2022/04/25 08:48:47;;;;;;;11.93;7.80;;;15.40;49.90;;;;;;4959506;28;46348;-63
2022/04/25 08:51:15;;;;;;;12.40;8.53;;;15.20;49.90;;;;;;4961984;28;46458;-62
2022/04/25 08:53:43;;;;;;;11.90;8.70;;;15.10;50.60;;;;;;4959975;28;46621;-64
2022/04/25 08:56:10;;;;;;;11.73;9.37;;;15.00;51.60;;;;;;4960994;28;46373;-62
2022/04/25 08:58:41;;;;;;;10.10;7.80;;;15.00;51.00;;;;;;4959863;28;46623;-64
2022/04/25 09:01:12;;;;;;;10.00;8.10;;;15.30;51.00;;;;;;4957868;28;48086;-65
2022/04/25 09:03:37;;;;;;;11.87;8.00;;;15.50;50.60;;;;;;4960940;28;46451;-63
2022/04/25 09:06:04;;;;;;;8.67;7.03;;;15.70;49.80;;;;;;4960421;28;46379;-63
2022/04/25 09:08:30;;;;;;;9.57;7.57;;;16.00;49.00;;;;;;4957077;28;46408;-64
2022/04/25 09:13:43;;;;;;;11.63;7.73;;;16.70;46.80;;;;;;4961539;28;46679;-64
2022/04/25 09:16:12;;;;;;;10.07;7.03;;;16.60;46.80;;;;;;4959894;28;46264;-63
2022/04/25 09:18:38;;;;;;;10.40;7.60;;;16.50;46.50;;;;;;4961243;28;46340;-64
2022/04/25 09:21:07;;;;;;;11.27;7.83;;;16.40;46.00;;;;;;4959142;28;48160;-63
2022/04/25 09:23:33;;;;;;;10.90;7.83;;;15.90;46.60;;;;;;4960738;28;46522;-64
2022/04/25 09:26:15;;;;;;;10.30;7.53;;;15.40;47.00;;;;;;4959761;28;46345;-63
2022/04/25 09:28:47;;;;;;;10.93;7.47;;;15.50;48.00;;;;;;4958318;28;46415;-63
2022/04/25 09:31:14;;;;;;;11.30;7.77;;;15.70;47.90;;;;;;4959645;28;48786;-63
2022/04/25 09:33:40;;;;;;;10.97;7.20;;;15.80;47.70;;;;;;4956785;28;46321;-63
2022/04/25 09:36:06;;;;;;;10.10;7.53;;;15.90;47.20;;;;;;4952280;28;45994;-63
2022/04/25 09:38:39;;;;;;;10.90;7.87;;;16.10;47.40;;;;;;4952925;28;46423;-63
2022/04/25 09:41:07;;;;;;;9.50;7.07;;;16.50;46.70;;;;;;4937151;28;46491;-63
2022/04/25 09:43:38;;;;;;;8.87;7.13;;;16.60;45.60;;;;;;4959485;28;46413;-63
2022/04/25 09:46:10;;;;;;;8.60;6.70;;;16.90;45.50;;;;;;4960127;28;45850;-63
2022/04/25 09:48:39;;;;;;;9.23;6.77;;;17.40;45.30;;;;;;4958316;28;46460;-62
2022/04/25 09:51:11;;;;;;;11.77;7.40;;;17.50;42.70;;;;;;4955735;28;46543;-63
2022/04/25 09:53:54;;;;;;;10.03;7.67;;;17.20;43.60;;;;;;4956364;28;46467;-63
2022/04/25 09:56:20;;;;;;;9.87;7.30;;;17.50;43.90;;;;;;4960457;28;46678;-63
2022/04/25 09:59:02;;;;;;;7.80;6.07;;;17.90;43.10;;;;;;4960131;28;46790;-63
2022/04/25 10:01:29;;;;;;;9.60;7.37;;;18.30;41.30;;;;;;4956333;28;47950;-63
2022/04/25 10:03:55;;;;;;;8.83;6.90;;;17.90;41.10;;;;;;4959282;28;46360;-63
2022/04/25 10:06:22;;;;;;;8.73;7.00;;;17.90;42.90;;;;;;4958866;28;46742;-64
2022/04/25 10:08:49;;;;;;;10.13;7.37;;;18.20;41.60;;;;;;4955862;28;46414;-63
2022/04/25 10:11:18;;;;;;;8.83;7.10;;;18.30;40.60;;;;;;4956971;28;48061;-63
2022/04/25 10:13:47;;;;;;;8.30;6.30;;;18.00;40.50;;;;;;4951179;28;46448;-63
2022/04/25 10:16:18;;;;;;;11.20;7.63;;;18.10;40.80;;;;;;4961054;28;46401;-63
2022/04/25 10:18:45;;;;;;;10.70;7.90;;;17.60;40.40;;;;;;4973155;28;46396;-63
2022/04/25 10:21:11;;;;;;;7.90;6.40;;;17.40;41.20;;;;;;4957390;28;48108;-63
2022/04/25 10:23:38;;;;;;;8.03;6.10;;;17.30;41.40;;;;;;4958900;28;46691;-62
2022/04/25 10:26:03;;;;;;;10.40;7.00;;;17.10;40.60;;;;;;4959410;28;46495;-63
2022/04/25 10:28:33;;;;;;;8.50;6.20;;;17.00;40.90;;;;;;4958917;28;46629;-63
2022/04/25 10:31:02;;;;;;;7.53;5.60;;;17.00;40.00;;;;;;4958381;28;47946;-62
2022/04/25 10:33:56;;;;;;;6.30;4.80;;;17.00;40.80;;;;;;4956857;28;46650;-63
2022/04/25 10:36:40;;;;;;;8.00;5.70;;;17.00;39.30;;;;;;4956889;28;46464;-63
2022/04/25 10:39:24;;;;;;;7.10;5.43;;;17.10;40.00;;;;;;4958678;28;46607;-63
2022/04/25 10:44:37;;;;;;;7.80;5.83;;;17.50;39.70;;;;;;4956860;28;46490;-63
2022/04/25 10:47:06;;;;;;;10.03;6.83;;;17.60;39.30;;;;;;4959928;28;46342;-63
2022/04/25 10:49:53;;;;;;;8.27;6.20;;;17.40;38.80;;;;;;4960739;28;46369;-63
2022/04/25 10:52:42;;;;;;;15.20;8.10;;;16.80;37.80;;;;;;4957842;28;47458;-64
2022/04/25 10:55:14;;;;;;;8.70;6.43;;;16.50;38.80;;;;;;4956295;28;46349;-64
2022/04/25 10:58:02;;;;;;;8.97;6.90;;;16.30;38.40;;;;;;4959561;28;46220;-64
2022/04/25 11:00:45;;;;;;;8.33;6.57;;;16.00;38.60;;;;;;4958449;28;45895;-63
2022/04/25 11:03:27;;;;;;;9.93;7.30;;;16.10;38.50;;;;;;4954816;28;47196;-63
2022/04/25 11:06:03;;;;;;;8.80;6.47;;;16.30;38.20;;;;;;4959802;28;46471;-64
2022/04/25 11:08:37;;;;;;;8.57;6.37;;;16.60;37.50;;;;;;4955997;28;46442;-64
2022/04/25 11:11:12;;;;;;;11.33;7.40;;;16.90;37.10;;;;;;4958223;28;46406;-64
2022/04/25 11:13:50;;;;;;;9.10;6.90;;;16.90;37.60;;;;;;4959379;28;47805;-63
2022/04/25 11:16:24;;;;;;;9.10;6.97;;;16.90;36.60;;;;;;4959812;28;46375;-64
2022/04/25 11:19:08;;;;;;;8.70;6.23;;;17.30;36.60;;;;;;4959194;28;46572;-63
2022/04/25 11:21:34;;;;;;;11.73;6.90;;;17.90;35.60;;;;;;4960183;28;46872;-64
2022/04/25 11:24:02;;;;;;;7.73;6.30;;;18.00;35.50;;;;;;4958106;28;47963;-64
2022/04/25 11:26:33;;;;;;;8.87;6.73;;;18.10;35.20;;;;;;4957603;28;46377;-63
2022/04/25 11:29:08;;;;;;;8.50;6.10;;;18.20;35.00;;;;;;4959290;28;46721;-63
2022/04/25 11:31:35;;;;;;;9.30;7.10;;;18.10;35.00;;;;;;4951064;28;46380;-64
2022/04/25 11:34:03;;;;;;;11.00;7.67;;;17.60;34.40;;;;;;4957536;28;49197;-64
2022/04/25 11:36:31;;;;;;;9.43;7.23;;;17.10;34.90;;;;;;4958046;28;46478;-64
2022/04/25 11:41:44;;;;;;;11.57;8.00;;;16.40;36.50;;;;;;4959047;28;46345;-63
2022/04/25 11:44:10;;;;;;;9.63;7.07;;;16.50;37.30;;;;;;4958791;28;47941;-65
2022/04/25 11:46:37;;;;;;;9.70;7.80;;;16.40;38.30;;;;;;4957866;28;46516;-63
2022/04/25 11:49:06;;;;;;;9.90;7.23;;;16.20;37.00;;;;;;4958108;28;46365;-65
2022/04/25 11:51:39;;;;;;;11.87;7.83;;;16.40;36.50;;;;;;4958035;28;46431;-63
2022/04/25 11:54:10;;;;;;;10.50;7.50;;;16.20;36.00;;;;;;4958737;28;48662;-64
2022/04/25 11:56:39;;;;;;;10.53;6.90;;;16.20;36.40;;;;;;4959319;28;46536;-63
2022/04/25 11:59:12;;;;;;;9.17;6.97;;;16.20;36.20;;;;;;4961778;28;46461;-64
2022/04/25 12:01:39;;;;;;;11.87;6.97;;;16.10;36.40;;;;;;4960260;28;46501;-63
2022/04/25 12:04:18;;;;;;;8.80;6.40;;;15.90;36.50;;;;;;4961656;28;47961;-63
2022/04/25 12:06:47;;;;;;;10.03;7.40;;;15.70;35.40;;;;;;4974729;28;46436;-64
2022/04/25 12:17:46;;;;;;;9.90;7.80;;;16.40;35.20;;;;;;4961606;28;46324;-62
2022/04/25 12:20:15;;;;;;;13.43;7.37;;;16.60;35.30;;;;;;4949731;28;45846;-63
2022/04/25 12:22:52;;;;;;;11.17;8.03;;;16.60;35.90;;;;;;4960742;28;46595;-63
2022/04/25 12:25:20;;;;;;;8.57;6.90;;;16.60;35.40;;;;;;4960679;28;47031;-63
2022/04/25 12:28:04;;;;;;;9.60;7.40;;;16.80;35.80;;;;;;4961113;28;46521;-63
2022/04/25 12:30:49;;;;;;;9.00;6.60;;;17.10;35.70;;;;;;4960435;28;46450;-63
2022/04/25 12:33:17;;;;;;;11.43;7.93;;;17.70;35.20;;;;;;4958367;28;46473;-64
2022/04/25 12:35:45;;;;;;;11.67;8.10;;;18.20;34.00;;;;;;4975717;28;48888;-63
2022/04/25 12:38:33;;;;;;;9.20;7.30;;;18.10;32.80;;;;;;4960956;28;45986;-63
2022/04/25 12:40:59;;;;;;;14.20;7.97;;;17.90;33.00;;;;;;4961676;28;46768;-62
2022/04/25 12:43:35;;;;;;;9.50;8.00;;;17.50;31.90;;;;;;4961672;28;46480;-64
2022/04/25 12:46:01;;;;;;;11.50;8.00;;;17.40;33.00;;;;;;4959780;28;46445;-62
2022/04/25 12:48:27;;;;;;;10.37;7.73;;;17.60;33.20;;;;;;4957488;28;46468;-62
2022/04/25 12:50:53;;;;;;;10.33;7.40;;;17.80;32.30;;;;;;4955886;28;46372;-63
2022/04/25 12:53:38;;;;;;;11.50;7.87;;;18.10;32.30;;;;;;4957666;28;46274;-63
2022/04/25 12:56:04;;;;;;;9.00;6.90;;;17.90;32.10;;;;;;4960803;28;48114;-63
2022/04/25 12:58:35;;;;;;;12.03;8.43;;;18.10;32.30;;;;;;4960903;28;46445;-64
2022/04/25 13:01:01;;;;;;;9.90;7.40;;;18.40;32.60;;;;;;4960138;28;46468;-62
2022/04/25 13:03:28;;;;;;;9.47;7.20;;;18.70;32.90;;;;;;4960620;28;46321;-63
2022/04/25 13:05:54;;;;;;;11.67;8.63;;;19.00;31.70;;;;;;4962186;28;47801;-62
2022/04/25 13:08:20;;;;;;;9.50;7.13;;;18.60;29.90;;;;;;4961125;28;46355;-63
2022/04/25 13:10:46;;;;;;;10.40;7.40;;;18.30;30.40;;;;;;4962017;28;46346;-64
2022/04/25 13:13:13;;;;;;;8.83;6.90;;;18.20;30.20;;;;;;4959273;28;46604;-63
2022/04/25 13:15:38;;;;;;;12.90;6.77;;;18.10;30.20;;;;;;4960052;28;46488;-63
2022/04/25 13:18:05;;;;;;;8.80;6.87;;;18.00;30.50;;;;;;4961948;28;46628;-64
2022/04/25 13:20:31;;;;;;;10.63;6.90;;;18.10;30.50;;;;;;4961494;28;46496;-64
2022/04/25 13:22:59;;;;;;;8.57;7.00;;;18.20;29.80;;;;;;4961569;28;46475;-63
2022/04/25 13:25:25;;;;;;;9.57;6.00;;;18.00;30.00;;;;;;4956755;28;48052;-63
2022/04/25 13:27:52;;;;;;;9.90;6.80;;;17.60;29.70;;;;;;4960714;28;46333;-63
2022/04/25 13:30:20;;;;;;;10.77;8.10;;;17.50;30.40;;;;;;4960444;28;46349;-64